Time;durP1;ratioP1;P1;durP2;ratioP2;P2;SDS_P1;SDS_P2;PMS_P1;PMS_P2;Temp;Humidity;BMP_temperature;BMP_pressure;BME280_temperature;BME280_humidity;BME280_pressure;Samples;Min_cycle;Max_cycle;Signal;HPM_P1;HPM_P2
2022/04/20 00:00:35;;;;;;;6.20;3.40;;;;;;;;;;5055166;28;20827;-68
2022/04/20 00:03:02;;;;;;;2.97;2.87;;;;;;;;;;5054851;28;20497;-68
2022/04/20 00:05:33;;;;;;;3.70;3.47;;;;;;;;;;5055150;28;20409;-68
2022/04/20 00:07:59;;;;;;;3.07;2.97;;;;;;;;;;5055386;28;20419;-68
2022/04/20 00:10:25;;;;;;;3.00;2.80;;;;;;;;;;5055102;28;20370;-68
2022/04/20 00:12:51;;;;;;;2.97;2.87;;;;;;;;;;5054997;28;20407;-68
2022/04/20 00:15:17;;;;;;;3.70;2.97;;;;;;;;;;5055125;28;20430;-67
2022/04/20 00:17:43;;;;;;;3.33;2.77;;;;;;;;;;5055013;28;20465;-68
2022/04/20 00:20:09;;;;;;;2.97;2.87;;;;;;;;;;5055084;28;20799;-68
2022/04/20 00:22:35;;;;;;;2.53;2.43;;;;;;;;;;5054897;28;20564;-68
2022/04/20 00:25:01;;;;;;;2.60;2.50;;;;;;;;;;5054861;28;20426;-68
2022/04/20 00:27:27;;;;;;;3.03;2.83;;;;;;;;;;5054891;28;20417;-67
2022/04/20 00:29:53;;;;;;;2.47;2.37;;;;;;;;;;5054836;28;20410;-68
2022/04/20 00:32:19;;;;;;;3.73;3.00;;;;;;;;;;5054881;28;20407;-68
2022/04/20 00:34:48;;;;;;;3.23;2.30;;;;;;;;;;5054769;28;20411;-68
2022/04/20 00:37:14;;;;;;;2.67;2.47;;;;;;;;;;5054496;28;20478;-67
2022/04/20 00:39:40;;;;;;;2.10;2.10;;;;;;;;;;5054856;28;20403;-68
2022/04/20 00:42:06;;;;;;;2.47;2.37;;;;;;;;;;5054397;28;20886;-68
2022/04/20 00:44:32;;;;;;;1.70;1.60;;;;;;;;;;5054489;28;20400;-68
2022/04/20 00:46:58;;;;;;;2.40;2.40;;;;;;;;;;5054359;28;20770;-67
2022/04/20 00:49:25;;;;;;;2.07;2.07;;;;;;;;;;5054428;28;20465;-68
2022/04/20 00:51:52;;;;;;;2.30;1.90;;;;;;;;;;5054287;28;20403;-68
2022/04/20 00:54:20;;;;;;;5.40;2.27;;;;;;;;;;5054279;28;20920;-68
2022/04/20 00:56:46;;;;;;;3.63;2.50;;;;;;;;;;5054234;28;20473;-69
2022/04/20 00:59:12;;;;;;;1.73;1.73;;;;;;;;;;5054442;28;20396;-68
2022/04/20 01:01:42;;;;;;;2.00;1.90;;;;;;;;;;5054204;28;20426;-68
2022/04/20 01:04:08;;;;;;;1.83;1.73;;;;;;;;;;5054088;28;20489;-68
2022/04/20 01:06:34;;;;;;;3.30;1.70;;;;;;;;;;5053969;28;20415;-68
2022/04/20 01:09:01;;;;;;;2.17;2.07;;;;;;;;;;5054026;28;20407;-68
2022/04/20 01:11:27;;;;;;;3.80;2.00;;;;;;;;;;5053980;28;20457;-69
2022/04/20 01:13:53;;;;;;;2.07;2.00;;;;;;;;;;5053501;28;20407;-68
2022/04/20 01:16:19;;;;;;;3.70;1.90;;;;;;;;;;5053786;28;20474;-68
2022/04/20 01:18:45;;;;;;;1.73;1.73;;;;;;;;;;5053848;28;20774;-67
2022/04/20 01:21:11;;;;;;;1.90;1.90;;;;;;;;;;5053809;28;20453;-68
2022/04/20 01:23:38;;;;;;;1.90;1.90;;;;;;;;;;5053953;28;20774;-68
2022/04/20 01:26:08;;;;;;;1.77;1.77;;;;;;;;;;5053817;28;20893;-68
2022/04/20 01:28:34;;;;;;;1.77;1.67;;;;;;;;;;5053621;28;20407;-68
2022/04/20 01:31:00;;;;;;;1.70;1.70;;;;;;;;;;5053599;28;20407;-68
2022/04/20 01:33:26;;;;;;;2.00;1.83;;;;;;;;;;5052316;28;20765;-68
2022/04/20 01:35:52;;;;;;;2.10;2.00;;;;;;;;;;5053486;28;20502;-68
2022/04/20 01:38:18;;;;;;;1.40;1.30;;;;;;;;;;5053531;28;20448;-68
2022/04/20 01:40:44;;;;;;;2.10;2.00;;;;;;;;;;5053358;28;20437;-68
2022/04/20 01:43:13;;;;;;;2.13;2.03;;;;;;;;;;5053483;28;20902;-68
2022/04/20 01:45:39;;;;;;;2.20;2.20;;;;;;;;;;5053470;28;20387;-68
2022/04/20 01:48:06;;;;;;;2.50;2.40;;;;;;;;;;5053380;28;20823;-68
2022/04/20 01:50:32;;;;;;;3.17;2.07;;;;;;;;;;5053617;28;20410;-68
2022/04/20 01:52:58;;;;;;;1.80;1.80;;;;;;;;;;5053418;28;20444;-68
2022/04/20 01:55:24;;;;;;;6.30;2.20;;;;;;;;;;5053369;28;20909;-68
2022/04/20 01:57:52;;;;;;;2.43;2.37;;;;;;;;;;5053243;28;20462;-69
2022/04/20 02:00:18;;;;;;;2.23;2.03;;;;;;;;;;5053243;28;20453;-68
2022/04/20 02:02:44;;;;;;;2.87;2.67;;;;;;;;;;5053299;28;20396;-68
2022/04/20 02:05:11;;;;;;;8.33;2.30;;;;;;;;;;5053254;28;20488;-68
2022/04/20 02:07:37;;;;;;;6.13;2.23;;;;;;;;;;5053085;28;20472;-68
2022/04/20 02:10:04;;;;;;;2.53;2.43;;;;;;;;;;5053188;28;20415;-67
2022/04/20 02:12:30;;;;;;;6.23;2.50;;;;;;;;;;5053123;28;20411;-67
2022/04/20 02:14:56;;;;;;;5.53;2.30;;;;;;;;;;5053123;28;20410;-67
2022/04/20 02:17:22;;;;;;;2.67;2.57;;;;;;;;;;5053085;28;21026;-67
2022/04/20 02:19:48;;;;;;;2.70;2.50;;;;;;;;;;5053175;28;20399;-68
2022/04/20 02:22:14;;;;;;;3.30;3.10;;;;;;;;;;5053053;28;20423;-68
2022/04/20 02:24:40;;;;;;;8.03;3.43;;;;;;;;;;5053541;28;20498;-68
2022/04/20 02:27:08;;;;;;;3.10;3.00;;;;;;;;;;5057087;28;20506;-68
2022/04/20 02:29:37;;;;;;;3.10;2.90;;;;;;;;;;5057245;28;20407;-68
2022/04/20 02:32:03;;;;;;;2.90;2.80;;;;;;;;;;5057020;28;20407;-68
2022/04/20 02:34:29;;;;;;;3.00;2.80;;;;;;;;;;5057212;28;20494;-68
2022/04/20 02:36:55;;;;;;;3.57;3.27;;;;;;;;;;5056731;28;20887;-68
2022/04/20 02:39:21;;;;;;;5.20;2.87;;;;;;;;;;5056834;28;20480;-68
2022/04/20 02:41:47;;;;;;;3.27;3.17;;;;;;;;;;5056667;28;20484;-68
2022/04/20 02:44:14;;;;;;;3.20;3.00;;;;;;;;;;5056777;28;20896;-68
2022/04/20 02:46:40;;;;;;;3.80;2.87;;;;;;;;;;5056697;28;20864;-68
2022/04/20 02:49:06;;;;;;;2.60;2.50;;;;;;;;;;5056574;28;20430;-68
2022/04/20 02:51:32;;;;;;;5.77;3.13;;;;;;;;;;5056582;28;20415;-68
2022/04/20 02:53:58;;;;;;;2.60;2.43;;;;;;;;;;5056610;28;20410;-68
2022/04/20 02:56:24;;;;;;;3.70;2.70;;;;;;;;;;5056444;28;20490;-68
2022/04/20 02:58:50;;;;;;;4.20;2.60;;;;;;;;;;5055224;28;20431;-68
2022/04/20 03:01:16;;;;;;;5.13;2.40;;;;;;;;;;5056398;28;20395;-69
2022/04/20 03:03:42;;;;;;;3.07;2.90;;;;;;;;;;5056379;28;20508;-68
2022/04/20 03:06:08;;;;;;;6.93;2.93;;;;;;;;;;5056291;28;20494;-68
2022/04/20 03:08:35;;;;;;;3.60;3.10;;;;;;;;;;5056332;28;20469;-68
2022/04/20 03:11:01;;;;;;;3.23;3.03;;;;;;;;;;5056429;28;20411;-67
2022/04/20 03:13:27;;;;;;;2.90;2.80;;;;;;;;;;5056140;28;20517;-67
2022/04/20 03:15:56;;;;;;;3.00;2.90;;;;;;;;;;5056074;28;20875;-67
2022/04/20 03:18:22;;;;;;;3.27;3.17;;;;;;;;;;5056391;28;20407;-68
2022/04/20 03:20:51;;;;;;;3.00;2.90;;;;;;;;;;5056018;28;20399;-67
2022/04/20 03:23:18;;;;;;;2.77;2.57;;;;;;;;;;5055955;28;20768;-68
2022/04/20 03:25:44;;;;;;;3.53;3.07;;;;;;;;;;5055872;28;20818;-68
2022/04/20 03:28:10;;;;;;;3.07;3.07;;;;;;;;;;5056037;28;20452;-68
2022/04/20 03:30:38;;;;;;;4.00;3.70;;;;;;;;;;5055887;28;20757;-68
2022/04/20 03:33:05;;;;;;;3.37;3.07;;;;;;;;;;5055935;28;20377;-68
2022/04/20 03:35:30;;;;;;;3.43;3.30;;;;;;;;;;5055699;28;20399;-68
2022/04/20 03:37:57;;;;;;;7.83;3.40;;;;;;;;;;5054870;28;20805;-68
2022/04/20 03:40:23;;;;;;;3.10;2.83;;;;;;;;;;5054261;28;20479;-68
2022/04/20 03:42:49;;;;;;;3.00;2.90;;;;;;;;;;5055685;28;20419;-67
2022/04/20 03:45:18;;;;;;;3.57;3.20;;;;;;;;;;5055552;28;20407;-68
2022/04/20 03:47:44;;;;;;;10.23;2.87;;;;;;;;;;5055519;28;20415;-68
2022/04/20 03:50:10;;;;;;;3.53;3.33;;;;;;;;;;5055507;28;20403;-68
2022/04/20 03:52:38;;;;;;;2.47;2.47;;;;;;;;;;5054107;28;20428;-69
2022/04/20 03:55:04;;;;;;;3.10;2.90;;;;;;;;;;5055308;28;20883;-69
2022/04/20 03:57:30;;;;;;;2.80;2.80;;;;;;;;;;5055293;28;20477;-69
2022/04/20 03:59:56;;;;;;;4.40;2.63;;;;;;;;;;5054046;28;20423;-69
2022/04/20 04:02:22;;;;;;;2.87;2.67;;;;;;;;;;5055375;28;20754;-69
2022/04/20 04:04:48;;;;;;;2.50;2.40;;;;;;;;;;5055173;28;20439;-68
2022/04/20 04:07:14;;;;;;;3.03;2.50;;;;;;;;;;5055174;28;20488;-67
2022/04/20 04:09:40;;;;;;;2.67;2.67;;;;;;;;;;5055454;28;20479;-68
2022/04/20 04:12:07;;;;;;;2.73;2.63;;;;;;;;;;5055190;28;20994;-68
2022/04/20 04:14:42;;;;;;;2.77;2.67;;;;;;;;;;5055308;28;20558;-68
2022/04/20 04:17:09;;;;;;;4.20;3.00;;;;;;;;;;5053733;28;20449;-69
2022/04/20 04:19:35;;;;;;;2.60;2.40;;;;;;;;;;5055013;28;20403;-68
2022/04/20 04:22:02;;;;;;;4.60;3.07;;;;;;;;;;5054921;28;20397;-68
2022/04/20 04:24:34;;;;;;;2.43;2.40;;;;;;;;;;5054884;28;20399;-68
2022/04/20 04:27:00;;;;;;;6.87;3.10;;;;;;;;;;5055085;28;20373;-68
2022/04/20 04:29:28;;;;;;;2.80;2.80;;;;;;;;;;5054819;28;20385;-68
2022/04/20 04:31:54;;;;;;;3.50;2.73;;;;;;;;;;5055020;28;20403;-68
2022/04/20 04:34:20;;;;;;;3.70;2.50;;;;;;;;;;5054700;28;20436;-69
2022/04/20 04:36:46;;;;;;;3.00;2.80;;;;;;;;;;5054549;28;20948;-68
2022/04/20 04:39:14;;;;;;;2.97;2.83;;;;;;;;;;5054541;28;20427;-68
2022/04/20 04:41:42;;;;;;;3.17;3.07;;;;;;;;;;5054433;28;20446;-68
2022/04/20 04:44:08;;;;;;;2.40;2.27;;;;;;;;;;5054689;28;20377;-68
2022/04/20 04:49:19;;;;;;;3.23;3.13;;;;;;;;;;5054478;28;20389;-69
2022/04/20 04:51:47;;;;;;;3.07;2.87;;;;;;;;;;5054273;28;20906;-68
2022/04/20 04:54:16;;;;;;;2.83;2.73;;;;;;;;;;5054355;28;20374;-68
2022/04/20 04:56:42;;;;;;;2.90;2.77;;;;;;;;;;5054266;28;20487;-69
2022/04/20 04:59:08;;;;;;;3.00;2.90;;;;;;;;;;5054489;28;20395;-69
2022/04/20 05:01:37;;;;;;;3.07;2.97;;;;;;;;;;5052765;28;20430;-69
2022/04/20 05:04:03;;;;;;;6.73;2.90;;;;;;;;;;5053989;28;20411;-69
2022/04/20 05:06:29;;;;;;;3.17;2.87;;;;;;;;;;5053845;28;20411;-69
2022/04/20 05:08:58;;;;;;;5.43;2.90;;;;;;;;;;5053861;28;20396;-69
2022/04/20 05:11:24;;;;;;;3.10;3.10;;;;;;;;;;5054028;28;20385;-68
2022/04/20 05:13:50;;;;;;;3.20;3.10;;;;;;;;;;5053893;28;20382;-69
2022/04/20 05:16:16;;;;;;;4.40;4.20;;;;;;;;;;5053564;28;20479;-69
2022/04/20 05:18:42;;;;;;;4.00;2.70;;;;;;;;;;5053802;28;20417;-68
2022/04/20 05:21:08;;;;;;;7.33;7.00;;;;;;;;;;5053790;28;20395;-68
2022/04/20 05:23:34;;;;;;;3.20;3.10;;;;;;;;;;5053671;28;20505;-69
2022/04/20 05:26:00;;;;;;;3.33;3.10;;;;;;;;;;5053736;28;20386;-69
2022/04/20 05:28:26;;;;;;;5.80;3.00;;;;;;;;;;5053735;28;20427;-69
2022/04/20 05:30:52;;;;;;;3.43;3.30;;;;;;;;;;5053658;28;20411;-66
2022/04/20 05:33:18;;;;;;;3.87;3.50;;;;;;;;;;5053450;28;20418;-68
2022/04/20 05:35:44;;;;;;;3.47;3.20;;;;;;;;;;5053466;28;20390;-67
2022/04/20 05:43:39;;;;;;;21.47;3.10;;;;;;;;;;5053544;28;20381;-65
2022/04/20 05:46:05;;;;;;;6.63;3.60;;;;;;;;;;5053411;28;20362;-68
2022/04/20 05:48:32;;;;;;;3.40;3.20;;;;;;;;;;5053671;28;20402;-69
2022/04/20 05:50:57;;;;;;;10.90;3.73;;;;;;;;;;5053294;28;20457;-69
2022/04/20 05:53:23;;;;;;;30.17;22.00;;;;;;;;;;5053206;28;20446;-68
2022/04/20 05:55:50;;;;;;;3.53;3.43;;;;;;;;;;5053201;28;20398;-69
2022/04/20 05:58:16;;;;;;;7.73;3.60;;;;;;;;;;5053262;28;20390;-69
2022/04/20 06:00:42;;;;;;;3.70;3.40;;;;;;;;;;5052874;28;20425;-69
2022/04/20 06:03:08;;;;;;;3.53;3.43;;;;;;;;;;5053366;28;20385;-69
2022/04/20 06:05:34;;;;;;;3.73;3.53;;;;;;;;;;5053345;28;20591;-68
2022/04/20 06:08:00;;;;;;;3.60;3.50;;;;;;;;;;5053228;28;20422;-68
2022/04/20 06:10:29;;;;;;;9.40;4.70;;;;;;;;;;5053219;28;20378;-69
2022/04/20 06:12:55;;;;;;;4.13;3.93;;;;;;;;;;5053206;28;20389;-69
2022/04/20 06:15:21;;;;;;;4.03;3.77;;;;;;;;;;5053145;28;20389;-68
2022/04/20 06:17:47;;;;;;;4.07;3.57;;;;;;;;;;5053023;28;20469;-69
2022/04/20 06:20:13;;;;;;;6.90;4.07;;;;;;;;;;5053459;28;20428;-68
2022/04/20 06:22:39;;;;;;;3.73;3.40;;;;;;;;;;5051820;28;20838;-67
2022/04/20 06:25:05;;;;;;;16.60;3.90;;;;;;;;;;5053121;28;20400;-66
2022/04/20 06:27:31;;;;;;;8.80;3.33;;;;;;;;;;5053016;28;20398;-68
2022/04/20 06:29:58;;;;;;;3.77;3.57;;;;;;;;;;5052981;28;20767;-69
2022/04/20 06:32:24;;;;;;;3.50;3.40;;;;;;;;;;5053012;28;20906;-66
2022/04/20 06:34:51;;;;;;;10.80;4.10;;;;;;;;;;5052990;28;20444;-69
2022/04/20 06:37:18;;;;;;;4.73;3.70;;;;;;;;;;5052889;28;20485;-69
2022/04/20 06:39:45;;;;;;;4.00;3.73;;;;;;;;;;5053033;28;20399;-74
2022/04/20 06:42:11;;;;;;;3.60;3.30;;;;;;;;;;5052913;28;20472;-69
2022/04/20 06:44:37;;;;;;;9.43;4.67;;;;;;;;;;5052931;28;20395;-70
2022/04/20 06:47:03;;;;;;;4.40;3.40;;;;;;;;;;5052904;28;20406;-70
2022/04/20 06:49:29;;;;;;;9.80;8.90;;;;;;;;;;5052836;28;20403;-70
2022/04/20 07:00:09;;;;;;;6.40;3.90;;;;;;;;;;5052758;28;20712;-68
2022/04/20 07:02:35;;;;;;;4.03;3.70;;;;;;;;;;5052740;28;20433;-67
2022/04/20 07:05:01;;;;;;;4.83;3.97;;;;;;;;;;5052679;28;20395;-69
2022/04/20 07:07:27;;;;;;;10.03;3.70;;;;;;;;;;5052649;28;20424;-69
2022/04/20 07:09:53;;;;;;;10.57;3.67;;;;;;;;;;5052657;28;20407;-67
2022/04/20 07:12:19;;;;;;;4.63;3.43;;;;;;;;;;5053868;28;20441;-68
2022/04/20 07:14:46;;;;;;;3.70;3.60;;;;;;;;;;5056183;28;20441;-69
2022/04/20 07:17:12;;;;;;;3.80;3.60;;;;;;;;;;5056108;28;20466;-70
2022/04/20 07:19:38;;;;;;;7.10;4.33;;;;;;;;;;5054875;28;20513;-70
2022/04/20 07:22:04;;;;;;;5.20;4.00;;;;;;;;;;5056087;28;20611;-70
2022/04/20 07:24:31;;;;;;;3.93;3.83;;;;;;;;;;5055953;28;20886;-70
2022/04/20 07:26:57;;;;;;;3.90;3.70;;;;;;;;;;5056063;28;20411;-69
2022/04/20 07:29:23;;;;;;;6.73;6.10;;;;;;;;;;5055860;28;20415;-70
2022/04/20 07:31:49;;;;;;;4.90;3.77;;;;;;;;;;5055869;28;20464;-70
2022/04/20 07:34:15;;;;;;;3.83;3.63;;;;;;;;;;5054605;28;20429;-70
2022/04/20 07:36:41;;;;;;;4.77;3.90;;;;;;;;;;5055673;28;20474;-68
2022/04/20 07:39:07;;;;;;;5.07;3.87;;;;;;;;;;5055725;28;20430;-69
2022/04/20 07:41:33;;;;;;;7.33;4.27;;;;;;;;;;5055571;28;20462;-68
2022/04/20 07:43:59;;;;;;;4.33;3.97;;;;;;;;;;5055698;28;20418;-70
2022/04/20 07:46:25;;;;;;;3.63;3.53;;;;;;;;;;5055589;28;20413;-70
2022/04/20 07:48:51;;;;;;;3.80;3.60;;;;;;;;;;5055496;28;20422;-67
2022/04/20 07:51:17;;;;;;;3.60;3.30;;;;;;;;;;5054221;28;20509;-70
2022/04/20 07:53:44;;;;;;;6.83;3.80;;;;;;;;;;5055588;28;20487;-70
2022/04/20 07:56:10;;;;;;;3.03;2.93;;;;;;;;;;5055369;28;20454;-71
2022/04/20 07:58:36;;;;;;;3.83;3.50;;;;;;;;;;5055427;28;20435;-71
2022/04/20 08:01:02;;;;;;;9.13;3.97;;;;;;;;;;5055430;28;20431;-70
2022/04/20 08:03:28;;;;;;;3.33;3.23;;;;;;;;;;5055243;28;20415;-70
2022/04/20 08:05:55;;;;;;;3.37;3.17;;;;;;;;;;5055090;28;20399;-70
2022/04/20 08:08:22;;;;;;;3.43;3.20;;;;;;;;;;5055234;28;20423;-70
2022/04/20 08:10:48;;;;;;;4.30;4.00;;;;;;;;;;5055308;28;20399;-70
2022/04/20 08:16:00;;;;;;;3.03;2.83;;;;;;;;;;5055075;28;20406;-70
2022/04/20 08:18:26;;;;;;;3.73;3.30;;;;;;;;;;5055039;28;20411;-70
2022/04/20 08:20:52;;;;;;;3.50;3.40;;;;;;;;;;5055342;28;20403;-70
2022/04/20 08:23:19;;;;;;;3.70;3.40;;;;;;;;;;5053734;28;20968;-70
2022/04/20 08:25:45;;;;;;;3.30;3.20;;;;;;;;;;5055023;28;20461;-70
2022/04/20 08:28:12;;;;;;;3.17;3.00;;;;;;;;;;5055028;28;20430;-70
2022/04/20 08:30:39;;;;;;;3.23;3.13;;;;;;;;;;5054651;28;20565;-70
2022/04/20 08:33:07;;;;;;;3.50;3.30;;;;;;;;;;5053445;28;20430;-69
2022/04/20 08:35:33;;;;;;;4.10;2.97;;;;;;;;;;5053798;28;20437;-70
2022/04/20 08:37:59;;;;;;;2.90;2.80;;;;;;;;;;5054748;28;20482;-70
2022/04/20 08:40:26;;;;;;;5.10;3.17;;;;;;;;;;5054405;28;20795;-70
2022/04/20 08:42:52;;;;;;;2.90;2.60;;;;;;;;;;5054558;28;20434;-70
2022/04/20 08:45:20;;;;;;;3.17;2.90;;;;;;;;;;5054561;28;20874;-71
2022/04/20 08:47:49;;;;;;;2.93;2.77;;;;;;;;;;5054597;28;20415;-70
2022/04/20 08:50:15;;;;;;;1.90;1.90;;;;;;;;;;5054426;28;20411;-70
2022/04/20 08:52:46;;;;;;;3.43;2.40;;;;;;;;;;5054265;28;20419;-70
2022/04/20 08:55:14;;;;;;;31.80;3.83;;;;;;;;;;5054236;28;20414;-70
2022/04/20 08:57:41;;;;;;;3.13;2.27;;;;;;;;;;5053293;28;20497;-70
2022/04/20 09:00:09;;;;;;;2.50;2.30;;;;;;;;;;5054199;28;20501;-70
2022/04/20 09:02:35;;;;;;;2.50;2.40;;;;;;;;;;5054145;28;20965;-70
2022/04/20 09:05:03;;;;;;;2.43;2.43;;;;;;;;;;5054099;28;20449;-70
2022/04/20 09:07:31;;;;;;;2.13;2.13;;;;;;;;;;5054109;28;20433;-69
2022/04/20 09:09:57;;;;;;;2.40;2.30;;;;;;;;;;5053840;28;20407;-70
2022/04/20 09:12:23;;;;;;;4.50;2.43;;;;;;;;;;5053951;28;20450;-70
2022/04/20 09:14:50;;;;;;;2.50;2.50;;;;;;;;;;5053835;28;20820;-70
2022/04/20 09:17:17;;;;;;;2.47;2.37;;;;;;;;;;5053672;28;20558;-70
2022/04/20 09:19:44;;;;;;;2.73;2.50;;;;;;;;;;5053898;28;20406;-70
2022/04/20 09:22:21;;;;;;;3.30;2.60;;;;;;;;;;5054023;28;20420;-70
2022/04/20 09:25:00;;;;;;;2.23;2.13;;;;;;;;;;5053973;28;20408;-69
2022/04/20 09:27:30;;;;;;;2.23;2.23;;;;;;;;;;5053695;28;20408;-70
2022/04/20 09:29:56;;;;;;;2.30;2.30;;;;;;;;;;5053958;28;20401;-70
2022/04/20 09:32:31;;;;;;;2.27;2.27;;;;;;;;;;5053704;28;20410;-69
2022/04/20 09:35:03;;;;;;;7.10;2.80;;;;;;;;;;5053216;28;20867;-70
2022/04/20 09:37:29;;;;;;;3.13;2.50;;;;;;;;;;5052207;28;20968;-70
2022/04/20 09:39:55;;;;;;;2.57;2.47;;;;;;;;;;5053482;28;20402;-70
2022/04/20 09:42:21;;;;;;;2.73;2.50;;;;;;;;;;5053327;28;20777;-70
2022/04/20 09:45:01;;;;;;;2.23;2.03;;;;;;;;;;5053340;28;20397;-69
2022/04/20 09:50:19;;;;;;;2.23;2.23;;;;;;;;;;5053430;28;20408;-70
2022/04/20 09:52:49;;;;;;;2.40;2.40;;;;;;;;;;5053251;28;20417;-70
2022/04/20 09:55:18;;;;;;;2.63;2.53;;;;;;;;;;5053265;28;20397;-70
2022/04/20 09:57:44;;;;;;;8.50;2.50;;;;;;;;;;5053145;28;20469;-70
2022/04/20 10:00:15;;;;;;;2.40;2.07;;;;;;;;;;5053494;28;20766;-70
2022/04/20 10:02:45;;;;;;;2.33;2.20;;;;;;;;;;5053287;28;20467;-70
2022/04/20 10:05:11;;;;;;;3.03;1.83;;;;;;;;;;5053227;28;20463;-71
2022/04/20 10:07:37;;;;;;;2.10;2.10;;;;;;;;;;5053148;28;20417;-71
2022/04/20 10:10:04;;;;;;;2.03;1.93;;;;;;;;;;5053099;28;20409;-71
2022/04/20 10:12:33;;;;;;;2.27;2.17;;;;;;;;;;5053010;28;20416;-71
2022/04/20 10:17:48;;;;;;;2.40;2.30;;;;;;;;;;5053046;28;20515;-70
2022/04/20 10:20:14;;;;;;;5.80;2.10;;;;;;;;;;5053008;28;20497;-70
2022/04/20 10:22:42;;;;;;;2.60;1.73;;;;;;;;;;5052910;28;20930;-71
2022/04/20 10:25:08;;;;;;;2.03;1.93;;;;;;;;;;5051668;28;20524;-71
2022/04/20 10:27:55;;;;;;;4.00;3.77;;;;;;;;;;5052919;28;20419;-70
2022/04/20 10:30:40;;;;;;;2.00;1.90;;;;;;;;;;5052906;28;20395;-69
2022/04/20 10:33:10;;;;;;;2.37;2.27;;;;;;;;;;5052934;28;20481;-70
2022/04/20 10:35:54;;;;;;;1.90;1.77;;;;;;;;;;5052942;28;20407;-71
2022/04/20 10:38:21;;;;;;;2.07;1.97;;;;;;;;;;5052929;28;20431;-70
2022/04/20 10:40:57;;;;;;;2.77;2.57;;;;;;;;;;5052732;28;20462;-71
2022/04/20 10:43:23;;;;;;;6.57;2.30;;;;;;;;;;5053115;28;20409;-72
2022/04/20 10:46:14;;;;;;;3.07;3.07;;;;;;;;;;5053602;28;20432;-72
2022/04/20 10:48:49;;;;;;;2.80;2.60;;;;;;;;;;5053462;28;20432;-72
2022/04/20 10:51:16;;;;;;;2.30;2.20;;;;;;;;;;5056576;28;20426;-71
2022/04/20 10:53:43;;;;;;;2.87;2.60;;;;;;;;;;5056731;28;20421;-71
2022/04/20 10:56:09;;;;;;;4.53;2.50;;;;;;;;;;5056400;28;20816;-72
2022/04/20 10:58:36;;;;;;;2.70;2.47;;;;;;;;;;5056589;28;20458;-71
2022/04/20 11:01:09;;;;;;;12.77;2.90;;;;;;;;;;5056518;28;20400;-71
2022/04/20 11:03:53;;;;;;;6.00;2.70;;;;;;;;;;5055154;28;20431;-72
2022/04/20 11:06:19;;;;;;;3.13;2.80;;;;;;;;;;5056288;28;20465;-70
2022/04/20 11:08:45;;;;;;;5.60;2.80;;;;;;;;;;5056330;28;20407;-73
2022/04/20 11:19:54;;;;;;;4.47;2.90;;;;;;;;;;5056354;28;20763;-72
2022/04/20 11:22:22;;;;;;;3.73;3.07;;;;;;;;;;5056062;28;20926;-71
2022/04/20 11:25:00;;;;;;;4.20;2.67;;;;;;;;;;5056064;28;20458;-72
2022/04/20 11:27:38;;;;;;;3.17;2.97;;;;;;;;;;5055977;28;20480;-72
2022/04/20 11:30:05;;;;;;;5.10;3.20;;;;;;;;;;5056021;28;20403;-71
2022/04/20 11:32:31;;;;;;;5.23;2.70;;;;;;;;;;5054664;28;20943;-72
2022/04/20 11:35:05;;;;;;;2.70;2.60;;;;;;;;;;5054562;28;20435;-72
2022/04/20 11:37:31;;;;;;;2.93;2.80;;;;;;;;;;5055941;28;20480;-70
2022/04/20 11:39:57;;;;;;;2.97;2.30;;;;;;;;;;5055427;28;20409;-71
2022/04/20 11:42:23;;;;;;;3.67;2.20;;;;;;;;;;5055561;28;20439;-69
2022/04/20 11:44:50;;;;;;;3.63;2.60;;;;;;;;;;5055611;28;20409;-69
2022/04/20 11:47:17;;;;;;;5.60;2.73;;;;;;;;;;5055633;28;20425;-71
2022/04/20 11:49:48;;;;;;;2.90;2.70;;;;;;;;;;5055684;28;20405;-72
2022/04/20 11:52:15;;;;;;;2.30;2.20;;;;;;;;;;5054185;28;20435;-71
2022/04/20 11:54:45;;;;;;;2.33;2.23;;;;;;;;;;5055784;28;20455;-72
2022/04/20 11:57:11;;;;;;;3.40;2.00;;;;;;;;;;5055115;28;20998;-72
2022/04/20 11:59:44;;;;;;;2.90;2.70;;;;;;;;;;5055050;28;20395;-70
2022/04/20 12:02:13;;;;;;;3.00;2.90;;;;;;;;;;5055350;28;20412;-69
2022/04/20 12:04:39;;;;;;;2.83;2.60;;;;;;;;;;5055241;28;20494;-71
2022/04/20 12:07:05;;;;;;;2.40;2.30;;;;;;;;;;5053963;28;20433;-71
2022/04/20 12:09:36;;;;;;;3.40;2.67;;;;;;;;;;5055250;28;20396;-71
2022/04/20 12:12:06;;;;;;;4.03;2.47;;;;;;;;;;5055214;28;20917;-71
2022/04/20 12:14:37;;;;;;;13.97;11.30;;;;;;;;;;5053799;28;20417;-71
2022/04/20 12:17:07;;;;;;;2.70;2.50;;;;;;;;;;5055016;28;20463;-71
2022/04/20 12:19:34;;;;;;;2.30;2.10;;;;;;;;;;5055092;28;20405;-72
2022/04/20 12:22:04;;;;;;;2.90;2.20;;;;;;;;;;5054969;28;20423;-72
2022/04/20 12:24:30;;;;;;;3.90;2.30;;;;;;;;;;5054957;28;20501;-72
2022/04/20 12:26:57;;;;;;;3.00;2.67;;;;;;;;;;5054893;28;20453;-71
2022/04/20 12:29:25;;;;;;;13.63;2.33;;;;;;;;;;5054893;28;20891;-69
2022/04/20 12:31:54;;;;;;;2.20;2.10;;;;;;;;;;5053438;28;20426;-68
2022/04/20 12:34:21;;;;;;;2.43;2.23;;;;;;;;;;5054766;28;20401;-70
2022/04/20 12:37:03;;;;;;;4.30;4.10;;;;;;;;;;5054583;28;20468;-69
2022/04/20 12:39:39;;;;;;;4.83;4.30;;;;;;;;;;5054868;28;20469;-69
2022/04/20 12:42:05;;;;;;;4.37;2.00;;;;;;;;;;5054445;28;20470;-69
2022/04/20 12:44:46;;;;;;;2.60;2.30;;;;;;;;;;5054554;28;20430;-69
2022/04/20 12:47:15;;;;;;;2.53;2.33;;;;;;;;;;5054588;28;20401;-69
2022/04/20 12:49:43;;;;;;;8.43;2.50;;;;;;;;;;5054508;28;20823;-69
2022/04/20 12:52:13;;;;;;;3.90;2.77;;;;;;;;;;5054311;28;20415;-70
2022/04/20 12:54:39;;;;;;;9.30;2.37;;;;;;;;;;5054442;28;20905;-69
2022/04/20 13:03:13;;;;;;;4.43;2.60;;;;;;;;;;5052549;28;20484;-70
2022/04/20 13:05:40;;;;;;;2.67;2.47;;;;;;;;;;5054208;28;20401;-69
2022/04/20 13:08:07;;;;;;;2.20;2.10;;;;;;;;;;5054150;28;20435;-70
2022/04/20 13:10:37;;;;;;;2.57;2.50;;;;;;;;;;5053294;28;20897;-70
2022/04/20 13:13:04;;;;;;;3.83;3.57;;;;;;;;;;5054073;28;20412;-70
2022/04/20 13:15:30;;;;;;;2.87;2.47;;;;;;;;;;5054048;28;20401;-69
2022/04/20 13:17:59;;;;;;;2.67;2.57;;;;;;;;;;5053824;28;20502;-69
2022/04/20 13:20:26;;;;;;;8.83;2.53;;;;;;;;;;5053838;28;20403;-70
2022/04/20 13:22:52;;;;;;;3.90;2.20;;;;;;;;;;5053822;28;20792;-70
2022/04/20 13:28:04;;;;;;;3.50;2.27;;;;;;;;;;5054062;28;20407;-70
2022/04/20 13:30:40;;;;;;;3.60;2.77;;;;;;;;;;5053757;28;20407;-69
2022/04/20 13:33:06;;;;;;;2.63;2.43;;;;;;;;;;5053728;28;20401;-69
2022/04/20 13:35:32;;;;;;;7.03;4.90;;;;;;;;;;5053691;28;20418;-70
2022/04/20 13:37:59;;;;;;;6.17;3.00;;;;;;;;;;5053446;28;20476;-69
2022/04/20 13:40:25;;;;;;;5.97;2.50;;;;;;;;;;5053442;28;20515;-69
2022/04/20 13:42:51;;;;;;;6.50;2.63;;;;;;;;;;5053586;28;20426;-70
2022/04/20 13:45:17;;;;;;;3.53;2.13;;;;;;;;;;5053590;28;20494;-70
2022/04/20 13:47:43;;;;;;;2.30;2.20;;;;;;;;;;5053526;28;20424;-70
2022/04/20 13:50:09;;;;;;;2.50;2.30;;;;;;;;;;5053474;28;20406;-70
2022/04/20 13:52:36;;;;;;;3.23;2.30;;;;;;;;;;5053378;28;20423;-70
2022/04/20 13:55:02;;;;;;;7.70;2.47;;;;;;;;;;5053596;28;20445;-71
2022/04/20 13:57:28;;;;;;;2.20;1.93;;;;;;;;;;5053293;28;20472;-69
2022/04/20 13:59:54;;;;;;;2.87;2.10;;;;;;;;;;5052080;28;20474;-70
2022/04/20 14:02:20;;;;;;;4.00;2.30;;;;;;;;;;5052039;28;20425;-70
2022/04/20 14:04:46;;;;;;;4.67;1.80;;;;;;;;;;5053356;28;20480;-70
2022/04/20 14:07:12;;;;;;;2.23;2.03;;;;;;;;;;5053486;28;20437;-69
2022/04/20 14:09:38;;;;;;;3.07;2.10;;;;;;;;;;5053308;28;20413;-70
2022/04/20 14:12:04;;;;;;;1.90;1.90;;;;;;;;;;5053207;28;20413;-69
2022/04/20 14:14:31;;;;;;;4.10;3.80;;;;;;;;;;5051971;28;20410;-70
2022/04/20 14:16:58;;;;;;;2.90;2.70;;;;;;;;;;5053128;28;20933;-69
2022/04/20 14:19:24;;;;;;;2.63;2.53;;;;;;;;;;5051963;28;20407;-69
2022/04/20 14:21:52;;;;;;;2.00;1.90;;;;;;;;;;5055440;28;20427;-70
2022/04/20 14:24:18;;;;;;;3.40;2.50;;;;;;;;;;5057364;28;20412;-69
2022/04/20 14:32:14;;;;;;;1.77;1.77;;;;;;;;;;5057424;28;20813;-69
2022/04/20 14:34:41;;;;;;;1.50;1.50;;;;;;;;;;5057122;28;20918;-70
2022/04/20 14:37:07;;;;;;;7.70;2.20;;;;;;;;;;5056805;28;20469;-70
2022/04/20 14:39:34;;;;;;;1.93;1.83;;;;;;;;;;5056945;28;20563;-69
2022/04/20 14:42:00;;;;;;;2.20;1.77;;;;;;;;;;5056668;28;20894;-69
2022/04/20 14:44:27;;;;;;;6.40;2.00;;;;;;;;;;5057160;28;20758;-70
2022/04/20 14:46:54;;;;;;;2.40;2.30;;;;;;;;;;5057013;28;20409;-70
2022/04/20 14:49:20;;;;;;;2.20;1.87;;;;;;;;;;5056750;28;20413;-69
2022/04/20 14:51:49;;;;;;;1.93;1.93;;;;;;;;;;5056742;28;20543;-71
2022/04/20 14:54:15;;;;;;;3.33;2.13;;;;;;;;;;5056640;28;20774;-70
2022/04/20 14:56:41;;;;;;;4.13;2.47;;;;;;;;;;5056650;28;20500;-70
2022/04/20 14:59:07;;;;;;;2.63;2.53;;;;;;;;;;5056545;28;20484;-70
2022/04/20 15:01:34;;;;;;;3.30;2.00;;;;;;;;;;5056500;28;20433;-70
2022/04/20 15:04:00;;;;;;;4.20;2.17;;;;;;;;;;5056530;28;20774;-69
2022/04/20 15:06:26;;;;;;;2.70;1.90;;;;;;;;;;5055066;28;20804;-70
2022/04/20 15:08:52;;;;;;;2.40;2.30;;;;;;;;;;5056436;28;20426;-70
2022/04/20 15:11:19;;;;;;;5.27;1.80;;;;;;;;;;5056177;28;20545;-69
2022/04/20 15:13:48;;;;;;;1.97;1.80;;;;;;;;;;5056156;28;20419;-71
2022/04/20 15:16:14;;;;;;;2.30;2.20;;;;;;;;;;5054893;28;20542;-69
2022/04/20 15:18:40;;;;;;;6.13;2.50;;;;;;;;;;5056153;28;20412;-70
2022/04/20 15:21:06;;;;;;;2.83;2.00;;;;;;;;;;5056098;28;20510;-70
2022/04/20 15:23:32;;;;;;;7.40;1.90;;;;;;;;;;5055924;28;20886;-70
2022/04/20 15:25:59;;;;;;;3.37;2.37;;;;;;;;;;5055953;28;20825;-70
2022/04/20 15:28:25;;;;;;;2.43;2.27;;;;;;;;;;5055923;28;20985;-69
2022/04/20 15:30:52;;;;;;;4.20;2.60;;;;;;;;;;5056161;28;20408;-70